sensor_id;sensor_type;location;lat;lon;timestamp;pressure;altitude;pressure_sealevel;temperature;humidity
18850;BME280;4989;48.772;9.154;2022-10-16T00:03:42;97880.13;;;16.58;100.00
18850;BME280;4989;48.772;9.154;2022-10-16T00:08:46;97874.63;;;16.58;100.00
18850;BME280;4989;48.772;9.154;2022-10-16T00:13:50;97868.91;;;16.46;100.00
18850;BME280;4989;48.772;9.154;2022-10-16T00:18:54;97875.06;;;16.32;100.00
18850;BME280;4989;48.772;9.154;2022-10-16T00:23:59;97864.69;;;16.27;100.00
18850;BME280;4989;48.772;9.154;2022-10-16T00:29:03;97875.09;;;16.23;100.00
18850;BME280;4989;48.772;9.154;2022-10-16T00:34:05;97878.75;;;16.20;100.00
18850;BME280;4989;48.772;9.154;2022-10-16T00:39:08;97873.09;;;16.23;100.00
18850;BME280;4989;48.772;9.154;2022-10-16T00:49:44;97886.19;;;16.29;100.00
18850;BME280;4989;48.772;9.154;2022-10-16T00:54:47;97873.53;;;16.31;100.00
18850;BME280;4989;48.772;9.154;2022-10-16T00:59:51;97878.84;;;16.35;100.00
18850;BME280;4989;48.772;9.154;2022-10-16T01:04:55;97893.31;;;16.35;100.00
18850;BME280;4989;48.772;9.154;2022-10-16T01:10:35;97890.59;;;16.35;100.00
18850;BME280;4989;48.772;9.154;2022-10-16T01:15:55;97898.50;;;16.33;100.00
18850;BME280;4989;48.772;9.154;2022-10-16T01:21:03;97898.06;;;16.35;100.00
18850;BME280;4989;48.772;9.154;2022-10-16T01:31:24;97881.16;;;16.27;100.00
18850;BME280;4989;48.772;9.154;2022-10-16T01:36:37;97884.50;;;16.31;100.00
18850;BME280;4989;48.772;9.154;2022-10-16T01:41:55;97883.59;;;16.34;100.00
18850;BME280;4989;48.772;9.154;2022-10-16T01:47:01;97880.81;;;16.43;100.00
18850;BME280;4989;48.772;9.154;2022-10-16T01:52:08;97876.81;;;16.44;100.00
18850;BME280;4989;48.772;9.154;2022-10-16T01:57:13;97876.81;;;16.44;100.00
18850;BME280;4989;48.772;9.154;2022-10-16T02:02:18;97876.81;;;16.44;100.00
18850;BME280;4989;48.772;9.154;2022-10-16T02:07:22;97873.47;;;16.49;100.00
18850;BME280;4989;48.772;9.154;2022-10-16T02:12:31;97874.03;;;16.54;100.00
18850;BME280;4989;48.772;9.154;2022-10-16T02:17:35;97874.63;;;16.58;100.00
18850;BME280;4989;48.772;9.154;2022-10-16T02:22:48;97886.97;;;16.62;100.00
18850;BME280;4989;48.772;9.154;2022-10-16T02:33:03;97879.53;;;16.54;100.00
18850;BME280;4989;48.772;9.154;2022-10-16T02:38:08;97881.56;;;16.44;100.00
18850;BME280;4989;48.772;9.154;2022-10-16T02:43:31;97883.88;;;16.36;100.00
18850;BME280;4989;48.772;9.154;2022-10-16T02:48:34;97879.03;;;16.31;100.00
18850;BME280;4989;48.772;9.154;2022-10-16T02:53:37;97882.97;;;16.30;100.00
18850;BME280;4989;48.772;9.154;2022-10-16T02:58:39;97898.66;;;16.30;100.00
18850;BME280;4989;48.772;9.154;2022-10-16T03:03:41;97895.19;;;16.29;100.00
18850;BME280;4989;48.772;9.154;2022-10-16T03:08:44;97900.34;;;16.27;100.00
18850;BME280;4989;48.772;9.154;2022-10-16T03:13:46;97898.25;;;16.22;100.00
18850;BME280;4989;48.772;9.154;2022-10-16T03:18:49;97892.91;;;16.18;100.00
18850;BME280;4989;48.772;9.154;2022-10-16T03:23:52;97899.94;;;16.19;100.00
18850;BME280;4989;48.772;9.154;2022-10-16T03:28:54;97897.63;;;16.18;100.00
18850;BME280;4989;48.772;9.154;2022-10-16T03:33:57;97890.06;;;16.13;100.00
18850;BME280;4989;48.772;9.154;2022-10-16T03:38:59;97895.69;;;16.09;100.00
18850;BME280;4989;48.772;9.154;2022-10-16T03:44:02;97893.41;;;16.08;100.00
18850;BME280;4989;48.772;9.154;2022-10-16T03:49:04;97894.91;;;16.09;100.00
18850;BME280;4989;48.772;9.154;2022-10-16T03:54:11;97899.66;;;16.08;100.00
18850;BME280;4989;48.772;9.154;2022-10-16T03:59:13;97905.56;;;16.07;100.00
18850;BME280;4989;48.772;9.154;2022-10-16T04:04:15;97901.63;;;16.08;100.00
18850;BME280;4989;48.772;9.154;2022-10-16T04:09:18;97897.34;;;16.07;100.00
18850;BME280;4989;48.772;9.154;2022-10-16T04:14:20;97906.81;;;16.06;100.00
18850;BME280;4989;48.772;9.154;2022-10-16T04:19:22;97901.81;;;16.04;100.00
18850;BME280;4989;48.772;9.154;2022-10-16T04:24:25;97903.00;;;16.03;100.00
18850;BME280;4989;48.772;9.154;2022-10-16T04:29:27;97903.75;;;16.03;100.00
18850;BME280;4989;48.772;9.154;2022-10-16T04:34:30;97906.50;;;16.03;100.00
18850;BME280;4989;48.772;9.154;2022-10-16T04:39:32;97896.75;;;16.02;100.00
18850;BME280;4989;48.772;9.154;2022-10-16T04:44:35;97913.22;;;16.02;100.00
18850;BME280;4989;48.772;9.154;2022-10-16T04:49:37;97918.25;;;16.04;100.00
18850;BME280;4989;48.772;9.154;2022-10-16T04:54:39;97929.97;;;16.05;100.00
18850;BME280;4989;48.772;9.154;2022-10-16T04:59:42;97928.75;;;16.06;100.00
18850;BME280;4989;48.772;9.154;2022-10-16T05:04:45;97938.78;;;16.09;100.00
18850;BME280;4989;48.772;9.154;2022-10-16T05:09:47;97935.44;;;16.14;100.00
18850;BME280;4989;48.772;9.154;2022-10-16T05:14:49;97942.88;;;16.22;100.00
18850;BME280;4989;48.772;9.154;2022-10-16T05:19:52;97936.34;;;16.20;100.00
18850;BME280;4989;48.772;9.154;2022-10-16T05:24:54;97929.78;;;16.17;100.00
18850;BME280;4989;48.772;9.154;2022-10-16T05:29:57;97928.13;;;16.20;100.00
18850;BME280;4989;48.772;9.154;2022-10-16T05:35:00;97932.38;;;16.21;100.00
18850;BME280;4989;48.772;9.154;2022-10-16T05:40:03;97941.50;;;16.18;100.00
18850;BME280;4989;48.772;9.154;2022-10-16T05:45:08;97955.88;;;16.13;100.00
18850;BME280;4989;48.772;9.154;2022-10-16T05:50:11;97944.13;;;16.12;100.00
18850;BME280;4989;48.772;9.154;2022-10-16T05:55:14;97952.47;;;16.18;100.00
18850;BME280;4989;48.772;9.154;2022-10-16T06:00:16;97957.34;;;16.23;100.00
18850;BME280;4989;48.772;9.154;2022-10-16T06:05:18;97960.84;;;16.23;100.00
18850;BME280;4989;48.772;9.154;2022-10-16T06:10:21;97963.75;;;16.29;100.00
18850;BME280;4989;48.772;9.154;2022-10-16T06:15:23;97978.69;;;16.28;100.00
18850;BME280;4989;48.772;9.154;2022-10-16T06:20:26;97978.69;;;16.28;100.00
18850;BME280;4989;48.772;9.154;2022-10-16T06:25:32;97984.19;;;16.28;100.00
18850;BME280;4989;48.772;9.154;2022-10-16T06:30:35;97987.06;;;16.24;100.00
18850;BME280;4989;48.772;9.154;2022-10-16T06:35:37;97982.63;;;16.27;100.00
18850;BME280;4989;48.772;9.154;2022-10-16T06:40:39;97986.91;;;16.37;100.00
18850;BME280;4989;48.772;9.154;2022-10-16T06:45:42;97999.38;;;16.38;100.00
18850;BME280;4989;48.772;9.154;2022-10-16T06:50:44;98014.94;;;16.41;100.00
18850;BME280;4989;48.772;9.154;2022-10-16T06:55:46;98013.84;;;16.48;100.00
18850;BME280;4989;48.772;9.154;2022-10-16T07:00:54;98016.72;;;16.54;100.00
18850;BME280;4989;48.772;9.154;2022-10-16T07:05:57;98020.38;;;16.60;100.00
18850;BME280;4989;48.772;9.154;2022-10-16T07:11:00;98029.50;;;16.66;100.00
18850;BME280;4989;48.772;9.154;2022-10-16T07:16:11;98038.06;;;16.77;100.00
18850;BME280;4989;48.772;9.154;2022-10-16T07:21:16;98044.44;;;16.83;100.00
18850;BME280;4989;48.772;9.154;2022-10-16T07:26:19;98057.56;;;16.88;100.00
18850;BME280;4989;48.772;9.154;2022-10-16T07:31:21;98074.63;;;16.92;100.00
18850;BME280;4989;48.772;9.154;2022-10-16T07:36:24;98075.22;;;16.97;100.00
18850;BME280;4989;48.772;9.154;2022-10-16T07:41:27;98057.06;;;16.99;100.00
18850;BME280;4989;48.772;9.154;2022-10-16T07:46:30;98062.97;;;17.07;100.00
18850;BME280;4989;48.772;9.154;2022-10-16T07:51:33;98078.53;;;17.10;100.00
18850;BME280;4989;48.772;9.154;2022-10-16T07:56:35;98084.03;;;17.10;100.00
18850;BME280;4989;48.772;9.154;2022-10-16T08:01:44;98090.88;;;17.14;100.00
18850;BME280;4989;48.772;9.154;2022-10-16T08:06:46;98091.94;;;17.17;100.00
18850;BME280;4989;48.772;9.154;2022-10-16T08:11:48;98087.16;;;17.27;100.00
18850;BME280;4989;48.772;9.154;2022-10-16T08:16:51;98087.56;;;17.44;100.00
18850;BME280;4989;48.772;9.154;2022-10-16T08:21:53;98090.78;;;17.66;100.00
18850;BME280;4989;48.772;9.154;2022-10-16T08:26:56;98109.19;;;17.84;100.00
18850;BME280;4989;48.772;9.154;2022-10-16T08:31:58;98113.63;;;17.81;100.00
18850;BME280;4989;48.772;9.154;2022-10-16T08:37:01;98128.56;;;17.90;100.00
18850;BME280;4989;48.772;9.154;2022-10-16T08:52:21;98118.81;;;17.89;100.00
18850;BME280;4989;48.772;9.154;2022-10-16T08:57:25;98124.19;;;17.83;100.00
18850;BME280;4989;48.772;9.154;2022-10-16T09:03:03;98139.34;;;18.02;100.00
18850;BME280;4989;48.772;9.154;2022-10-16T09:13:29;98129.63;;;18.40;100.00
18850;BME280;4989;48.772;9.154;2022-10-16T09:23:36;98143.31;;;18.88;100.00
18850;BME280;4989;48.772;9.154;2022-10-16T09:28:39;98152.88;;;18.93;100.00
18850;BME280;4989;48.772;9.154;2022-10-16T09:33:42;98157.06;;;19.03;100.00
18850;BME280;4989;48.772;9.154;2022-10-16T09:38:46;98157.84;;;19.04;100.00
18850;BME280;4989;48.772;9.154;2022-10-16T09:43:55;98157.25;;;18.99;100.00
18850;BME280;4989;48.772;9.154;2022-10-16T09:49:21;98152.03;;;19.16;100.00
18850;BME280;4989;48.772;9.154;2022-10-16T09:54:23;98159.88;;;19.83;100.00
18850;BME280;4989;48.772;9.154;2022-10-16T10:05:39;98162.53;;;20.33;96.56
18850;BME280;4989;48.772;9.154;2022-10-16T10:10:43;98177.31;;;20.50;95.11
18850;BME280;4989;48.772;9.154;2022-10-16T10:15:46;98180.91;;;20.77;92.54
18850;BME280;4989;48.772;9.154;2022-10-16T10:20:58;98183.88;;;20.99;91.50
18850;BME280;4989;48.772;9.154;2022-10-16T10:26:14;98171.09;;;21.28;90.31
18850;BME280;4989;48.772;9.154;2022-10-16T10:36:41;98163.47;;;22.24;91.57
18850;BME280;4989;48.772;9.154;2022-10-16T11:08:35;98167.84;;;24.55;75.30
18850;BME280;4989;48.772;9.154;2022-10-16T11:14:36;98164.13;;;25.30;68.85
18850;BME280;4989;48.772;9.154;2022-10-16T11:24:30;98166.03;;;25.05;77.20
18850;BME280;4989;48.772;9.154;2022-10-16T11:29:45;98169.31;;;25.09;77.32
18850;BME280;4989;48.772;9.154;2022-10-16T11:34:52;98166.72;;;25.22;67.08
18850;BME280;4989;48.772;9.154;2022-10-16T11:40:10;98166.41;;;24.32;68.56
18850;BME280;4989;48.772;9.154;2022-10-16T11:51:22;98159.19;;;23.84;80.07
18850;BME280;4989;48.772;9.154;2022-10-16T11:56:31;98160.47;;;23.94;68.47
18850;BME280;4989;48.772;9.154;2022-10-16T12:07:19;98144.31;;;23.87;82.26
18850;BME280;4989;48.772;9.154;2022-10-16T12:12:38;98141.19;;;24.18;81.38
18850;BME280;4989;48.772;9.154;2022-10-16T12:17:41;98142.31;;;24.98;77.30
18850;BME280;4989;48.772;9.154;2022-10-16T12:22:56;98149.41;;;24.52;73.71
18850;BME280;4989;48.772;9.154;2022-10-16T12:28:27;98153.50;;;24.45;70.15
18850;BME280;4989;48.772;9.154;2022-10-16T12:33:42;98157.13;;;24.07;69.42
18850;BME280;4989;48.772;9.154;2022-10-16T12:38:52;98162.16;;;24.19;77.89
18850;BME280;4989;48.772;9.154;2022-10-16T12:43:56;98150.22;;;24.36;78.12
18850;BME280;4989;48.772;9.154;2022-10-16T12:54:34;98154.66;;;23.81;81.88
18850;BME280;4989;48.772;9.154;2022-10-16T13:05:34;98170.84;;;23.48;77.29
18850;BME280;4989;48.772;9.154;2022-10-16T13:21:07;98171.84;;;23.73;83.34
18850;BME280;4989;48.772;9.154;2022-10-16T13:27:02;98172.09;;;23.64;84.46
18850;BME280;4989;48.772;9.154;2022-10-16T13:31:44;98180.91;;;23.40;80.73
18850;BME280;4989;48.772;9.154;2022-10-16T13:36:52;98170.81;;;23.20;87.12
18850;BME280;4989;48.772;9.154;2022-10-16T13:42:25;98172.59;;;23.12;87.99
18850;BME280;4989;48.772;9.154;2022-10-16T13:47:30;98175.59;;;23.14;87.05
18850;BME280;4989;48.772;9.154;2022-10-16T13:52:32;98169.56;;;23.21;87.08
18850;BME280;4989;48.772;9.154;2022-10-16T13:57:35;98166.53;;;23.42;79.61
18850;BME280;4989;48.772;9.154;2022-10-16T14:02:39;98171.34;;;23.30;75.39
18850;BME280;4989;48.772;9.154;2022-10-16T14:07:43;98175.59;;;23.03;79.13
18850;BME280;4989;48.772;9.154;2022-10-16T14:12:45;98173.00;;;22.82;86.86
18850;BME280;4989;48.772;9.154;2022-10-16T14:17:56;98174.47;;;22.72;86.80
18850;BME280;4989;48.772;9.154;2022-10-16T14:23:04;98175.97;;;22.62;84.89
18850;BME280;4989;48.772;9.154;2022-10-16T14:33:22;98178.47;;;22.60;87.16
18850;BME280;4989;48.772;9.154;2022-10-16T14:38:26;98190.09;;;22.64;86.94
18850;BME280;4989;48.772;9.154;2022-10-16T14:43:42;98183.44;;;22.45;86.03
18850;BME280;4989;48.772;9.154;2022-10-16T14:48:52;98188.53;;;22.52;89.31
18850;BME280;4989;48.772;9.154;2022-10-16T14:53:57;98188.78;;;22.54;86.70
18850;BME280;4989;48.772;9.154;2022-10-16T14:59:02;98190.53;;;22.46;89.47
18850;BME280;4989;48.772;9.154;2022-10-16T15:04:07;98192.97;;;22.32;87.52
18850;BME280;4989;48.772;9.154;2022-10-16T15:09:10;98181.69;;;22.41;89.56
18850;BME280;4989;48.772;9.154;2022-10-16T15:14:13;98180.91;;;22.35;91.35
18850;BME280;4989;48.772;9.154;2022-10-16T15:19:35;98192.94;;;22.27;91.24
18850;BME280;4989;48.772;9.154;2022-10-16T15:24:38;98191.41;;;22.20;91.44
18850;BME280;4989;48.772;9.154;2022-10-16T15:29:40;98175.69;;;22.06;92.82
18850;BME280;4989;48.772;9.154;2022-10-16T15:34:43;98187.94;;;21.93;93.78
18850;BME280;4989;48.772;9.154;2022-10-16T15:39:45;98186.38;;;21.87;95.62
18850;BME280;4989;48.772;9.154;2022-10-16T15:44:47;98186.28;;;21.70;98.47
18850;BME280;4989;48.772;9.154;2022-10-16T15:49:52;98191.13;;;21.43;100.00
18850;BME280;4989;48.772;9.154;2022-10-16T15:54:54;98200.69;;;21.22;100.00
18850;BME280;4989;48.772;9.154;2022-10-16T15:59:57;98201.00;;;21.30;100.00
18850;BME280;4989;48.772;9.154;2022-10-16T16:05:00;98194.25;;;21.04;100.00
18850;BME280;4989;48.772;9.154;2022-10-16T16:10:05;98202.41;;;20.93;100.00
18850;BME280;4989;48.772;9.154;2022-10-16T16:15:10;98199.69;;;20.73;100.00
18850;BME280;4989;48.772;9.154;2022-10-16T16:20:13;98202.84;;;20.45;100.00
18850;BME280;4989;48.772;9.154;2022-10-16T16:25:15;98206.00;;;20.18;100.00
18850;BME280;4989;48.772;9.154;2022-10-16T16:30:18;98212.22;;;20.33;100.00
18850;BME280;4989;48.772;9.154;2022-10-16T16:35:28;98214.06;;;20.56;100.00
18850;BME280;4989;48.772;9.154;2022-10-16T16:40:31;98220.16;;;20.61;100.00
18850;BME280;4989;48.772;9.154;2022-10-16T16:45:36;98225.72;;;20.46;100.00
18850;BME280;4989;48.772;9.154;2022-10-16T16:50:38;98219.09;;;20.02;100.00
18850;BME280;4989;48.772;9.154;2022-10-16T16:55:41;98225.59;;;20.20;100.00
18850;BME280;4989;48.772;9.154;2022-10-16T17:00:47;98243.63;;;20.35;100.00
18850;BME280;4989;48.772;9.154;2022-10-16T17:06:02;98239.97;;;20.24;100.00
18850;BME280;4989;48.772;9.154;2022-10-16T17:11:06;98243.97;;;20.23;100.00
18850;BME280;4989;48.772;9.154;2022-10-16T17:16:13;98247.91;;;20.16;100.00
18850;BME280;4989;48.772;9.154;2022-10-16T17:21:15;98246.59;;;19.97;100.00
18850;BME280;4989;48.772;9.154;2022-10-16T17:26:18;98251.56;;;19.78;100.00
18850;BME280;4989;48.772;9.154;2022-10-16T17:31:25;98263.34;;;19.63;100.00
18850;BME280;4989;48.772;9.154;2022-10-16T17:36:31;98258.69;;;19.40;100.00
18850;BME280;4989;48.772;9.154;2022-10-16T17:41:35;98268.66;;;19.22;100.00
18850;BME280;4989;48.772;9.154;2022-10-16T17:46:38;98275.25;;;19.01;100.00
18850;BME280;4989;48.772;9.154;2022-10-16T17:51:42;98280.06;;;19.15;100.00
18850;BME280;4989;48.772;9.154;2022-10-16T17:56:45;98291.19;;;18.97;100.00
18850;BME280;4989;48.772;9.154;2022-10-16T18:01:49;98288.34;;;18.91;100.00
18850;BME280;4989;48.772;9.154;2022-10-16T18:06:51;98296.25;;;18.74;100.00
18850;BME280;4989;48.772;9.154;2022-10-16T18:11:54;98290.47;;;18.63;100.00
18850;BME280;4989;48.772;9.154;2022-10-16T18:17:01;98301.59;;;18.45;100.00
18850;BME280;4989;48.772;9.154;2022-10-16T18:22:04;98308.53;;;18.73;100.00
18850;BME280;4989;48.772;9.154;2022-10-16T18:27:06;98309.69;;;18.72;100.00
18850;BME280;4989;48.772;9.154;2022-10-16T18:32:09;98317.88;;;18.91;100.00
18850;BME280;4989;48.772;9.154;2022-10-16T18:37:11;98317.59;;;19.13;100.00
18850;BME280;4989;48.772;9.154;2022-10-16T18:42:16;98323.19;;;19.18;100.00
18850;BME280;4989;48.772;9.154;2022-10-16T18:47:18;98324.16;;;19.15;100.00
18850;BME280;4989;48.772;9.154;2022-10-16T18:52:21;98326.72;;;19.19;100.00
18850;BME280;4989;48.772;9.154;2022-10-16T18:57:27;98322.56;;;18.75;100.00
18850;BME280;4989;48.772;9.154;2022-10-16T19:02:32;98332.66;;;18.69;100.00
18850;BME280;4989;48.772;9.154;2022-10-16T19:07:54;98329.03;;;18.63;100.00
18850;BME280;4989;48.772;9.154;2022-10-16T19:12:57;98338.41;;;18.90;100.00
18850;BME280;4989;48.772;9.154;2022-10-16T19:17:59;98334.22;;;18.70;100.00
18850;BME280;4989;48.772;9.154;2022-10-16T19:23:02;98346.88;;;18.44;100.00
18850;BME280;4989;48.772;9.154;2022-10-16T19:28:06;98343.88;;;18.33;100.00
18850;BME280;4989;48.772;9.154;2022-10-16T19:33:09;98353.31;;;18.41;100.00
18850;BME280;4989;48.772;9.154;2022-10-16T19:38:12;98353.19;;;18.35;100.00
18850;BME280;4989;48.772;9.154;2022-10-16T19:43:14;98354.78;;;18.51;100.00
18850;BME280;4989;48.772;9.154;2022-10-16T19:48:17;98348.19;;;18.58;100.00
18850;BME280;4989;48.772;9.154;2022-10-16T19:53:19;98352.34;;;18.53;100.00
18850;BME280;4989;48.772;9.154;2022-10-16T19:58:22;98364.28;;;18.50;100.00
18850;BME280;4989;48.772;9.154;2022-10-16T20:03:24;98365.13;;;18.65;100.00
18850;BME280;4989;48.772;9.154;2022-10-16T20:08:27;98371.56;;;18.95;100.00
18850;BME280;4989;48.772;9.154;2022-10-16T20:13:30;98374.78;;;18.94;100.00
18850;BME280;4989;48.772;9.154;2022-10-16T20:18:36;98384.22;;;19.02;100.00
18850;BME280;4989;48.772;9.154;2022-10-16T20:23:39;98395.75;;;19.01;100.00
18850;BME280;4989;48.772;9.154;2022-10-16T20:28:42;98401.41;;;18.97;100.00
18850;BME280;4989;48.772;9.154;2022-10-16T20:33:45;98399.94;;;18.87;100.00
18850;BME280;4989;48.772;9.154;2022-10-16T20:38:48;98417.00;;;18.76;100.00
18850;BME280;4989;48.772;9.154;2022-10-16T20:43:51;98424.59;;;18.72;100.00
18850;BME280;4989;48.772;9.154;2022-10-16T20:48:55;98415.28;;;18.69;100.00
18850;BME280;4989;48.772;9.154;2022-10-16T20:54:12;98437.50;;;18.66;100.00
18850;BME280;4989;48.772;9.154;2022-10-16T20:59:15;98438.91;;;18.61;100.00
18850;BME280;4989;48.772;9.154;2022-10-16T21:04:17;98446.56;;;18.48;100.00
18850;BME280;4989;48.772;9.154;2022-10-16T21:09:19;98453.47;;;18.43;100.00
18850;BME280;4989;48.772;9.154;2022-10-16T21:14:22;98460.66;;;18.41;100.00
18850;BME280;4989;48.772;9.154;2022-10-16T21:19:24;98461.91;;;18.40;100.00
18850;BME280;4989;48.772;9.154;2022-10-16T21:24:27;98460.66;;;18.41;100.00
18850;BME280;4989;48.772;9.154;2022-10-16T21:29:29;98469.25;;;18.43;100.00
18850;BME280;4989;48.772;9.154;2022-10-16T21:34:34;98472.91;;;18.30;100.00
18850;BME280;4989;48.772;9.154;2022-10-16T21:39:36;98472.91;;;18.30;100.00
18850;BME280;4989;48.772;9.154;2022-10-16T21:44:38;98472.16;;;18.30;100.00
18850;BME280;4989;48.772;9.154;2022-10-16T21:49:41;98467.84;;;18.38;100.00
18850;BME280;4989;48.772;9.154;2022-10-16T21:54:43;98463.59;;;18.28;100.00
18850;BME280;4989;48.772;9.154;2022-10-16T21:59:48;98465.91;;;18.11;100.00
18850;BME280;4989;48.772;9.154;2022-10-16T22:04:50;98468.06;;;18.07;100.00
18850;BME280;4989;48.772;9.154;2022-10-16T22:09:52;98470.19;;;18.03;100.00
18850;BME280;4989;48.772;9.154;2022-10-16T22:14:55;98465.34;;;17.89;100.00
18850;BME280;4989;48.772;9.154;2022-10-16T22:19:57;98475.09;;;17.80;100.00
18850;BME280;4989;48.772;9.154;2022-10-16T22:25:00;98481.53;;;17.77;100.00
18850;BME280;4989;48.772;9.154;2022-10-16T22:30:02;98479.81;;;17.71;100.00
18850;BME280;4989;48.772;9.154;2022-10-16T22:35:05;98477.22;;;17.67;100.00
18850;BME280;4989;48.772;9.154;2022-10-16T22:40:08;98480.00;;;17.85;100.00
18850;BME280;4989;48.772;9.154;2022-10-16T22:45:11;98475.69;;;18.03;100.00
18850;BME280;4989;48.772;9.154;2022-10-16T22:50:13;98473.88;;;17.91;100.00
18850;BME280;4989;48.772;9.154;2022-10-16T22:55:16;98479.09;;;17.21;100.00
18850;BME280;4989;48.772;9.154;2022-10-16T23:00:19;98476.50;;;17.08;100.00
18850;BME280;4989;48.772;9.154;2022-10-16T23:05:21;98483.00;;;16.92;100.00
18850;BME280;4989;48.772;9.154;2022-10-16T23:10:24;98486.53;;;16.70;100.00
18850;BME280;4989;48.772;9.154;2022-10-16T23:15:31;98491.41;;;16.44;100.00
18850;BME280;4989;48.772;9.154;2022-10-16T23:20:33;98486.25;;;16.24;100.00
18850;BME280;4989;48.772;9.154;2022-10-16T23:25:36;98500.94;;;16.09;100.00
18850;BME280;4989;48.772;9.154;2022-10-16T23:30:39;98494.94;;;16.01;100.00
18850;BME280;4989;48.772;9.154;2022-10-16T23:35:41;98510.78;;;16.72;100.00
18850;BME280;4989;48.772;9.154;2022-10-16T23:40:44;98505.19;;;16.76;100.00
18850;BME280;4989;48.772;9.154;2022-10-16T23:45:46;98517.84;;;16.29;100.00
18850;BME280;4989;48.772;9.154;2022-10-16T23:50:48;98514.78;;;16.05;100.00
18850;BME280;4989;48.772;9.154;2022-10-16T23:55:51;98522.66;;;15.81;100.00
